createdAt,value
2023-10-26T00:01:52.539Z,6.03
2023-10-26T00:04:20.190Z,5.57
2023-10-26T00:06:47.689Z,5.97
2023-10-26T00:09:15.138Z,5.82
2023-10-26T00:11:42.586Z,5.78
2023-10-26T00:14:09.980Z,5.15
2023-10-26T00:16:37.397Z,6.45
2023-10-26T00:19:05.112Z,8.32
2023-10-26T00:21:32.559Z,5.57
2023-10-26T00:24:00.019Z,6.80
2023-10-26T00:26:27.437Z,5.82
2023-10-26T00:28:54.816Z,5.22
2023-10-26T00:31:22.291Z,5.72
2023-10-26T00:33:49.823Z,5.07
2023-10-26T00:36:17.515Z,7.05
2023-10-26T00:38:44.927Z,6.95
2023-10-26T00:41:12.275Z,6.38
2023-10-26T00:43:40.026Z,6.90
2023-10-26T00:46:11.996Z,4.90
2023-10-26T00:48:40.862Z,5.55
2023-10-26T00:51:08.380Z,5.93
2023-10-26T00:53:35.926Z,5.50
2023-10-26T00:56:03.536Z,7.78
2023-10-26T00:58:32.403Z,5.72
2023-10-26T01:00:59.897Z,5.50
2023-10-26T01:03:29.913Z,6.30
2023-10-26T01:05:57.405Z,5.93
2023-10-26T01:08:25.115Z,5.63
2023-10-26T01:10:52.818Z,5.30
2023-10-26T01:13:20.440Z,6.75
2023-10-26T01:15:47.904Z,5.88
2023-10-26T01:18:15.464Z,6.80
2023-10-26T01:20:43.653Z,6.57
2023-10-26T01:23:11.476Z,5.75
2023-10-26T01:25:38.965Z,6.93
2023-10-26T01:28:08.480Z,8.05
2023-10-26T01:30:36.625Z,7.43
2023-10-26T01:33:04.325Z,7.05
2023-10-26T01:35:39.651Z,8.82
2023-10-26T01:38:07.384Z,6.30
2023-10-26T01:40:35.144Z,5.25
2023-10-26T01:43:02.540Z,7.38
2023-10-26T01:45:29.993Z,5.53
2023-10-26T01:47:57.615Z,5.10
2023-10-26T01:50:25.097Z,5.88
2023-10-26T01:52:52.791Z,5.28
2023-10-26T01:55:20.399Z,6.65
2023-10-26T01:57:47.762Z,7.10
2023-10-26T02:00:15.373Z,6.15
2023-10-26T02:02:42.863Z,5.80
2023-10-26T02:05:10.300Z,5.50
2023-10-26T02:07:37.930Z,4.95
2023-10-26T02:10:05.473Z,5.35
2023-10-26T02:12:32.897Z,5.57
2023-10-26T02:15:00.342Z,6.22
2023-10-26T02:17:27.785Z,4.68
2023-10-26T02:19:55.183Z,4.82
2023-10-26T02:22:22.566Z,5.15
2023-10-26T02:24:50.169Z,5.15
2023-10-26T02:27:17.762Z,6.63
2023-10-26T02:29:45.132Z,6.38
2023-10-26T02:32:12.736Z,5.55
2023-10-26T02:34:40.328Z,5.15
2023-10-26T02:37:07.742Z,4.75
2023-10-26T02:39:35.675Z,4.35
2023-10-26T02:42:03.173Z,4.55
2023-10-26T02:44:30.570Z,4.45
2023-10-26T02:46:58.004Z,4.43
2023-10-26T02:49:25.403Z,5.00
2023-10-26T02:51:52.747Z,4.93
2023-10-26T02:54:20.370Z,4.97
2023-10-26T02:56:47.888Z,6.03
2023-10-26T02:59:15.301Z,6.15
2023-10-26T03:01:42.658Z,5.85
2023-10-26T03:04:10.135Z,6.75
2023-10-26T03:06:38.177Z,6.95
2023-10-26T03:09:06.401Z,7.75
2023-10-26T03:11:34.053Z,7.63
2023-10-26T03:14:01.487Z,7.40
2023-10-26T03:16:28.877Z,7.07
2023-10-26T03:18:56.344Z,6.70
2023-10-26T03:21:23.998Z,6.03
2023-10-26T03:23:54.484Z,6.53
2023-10-26T03:26:22.280Z,7.03
2023-10-26T03:28:53.715Z,6.13
2023-10-26T03:31:21.188Z,6.10
2023-10-26T03:33:48.596Z,5.70
2023-10-26T03:36:16.504Z,6.28
2023-10-26T03:38:44.421Z,6.53
2023-10-26T03:41:11.884Z,4.50
2023-10-26T03:43:39.307Z,5.05
2023-10-26T03:46:06.845Z,5.75
2023-10-26T03:48:35.646Z,4.90
2023-10-26T03:51:03.730Z,5.20
2023-10-26T03:53:31.594Z,4.93
2023-10-26T03:55:59.541Z,4.78
2023-10-26T03:58:27.068Z,4.32
2023-10-26T04:00:54.500Z,6.35
2023-10-26T04:03:22.029Z,5.40
2023-10-26T04:05:49.450Z,4.10
2023-10-26T04:08:16.883Z,4.85
2023-10-26T04:10:44.259Z,5.35
2023-10-26T04:13:11.996Z,5.13
2023-10-26T04:15:39.404Z,3.97
2023-10-26T04:18:09.914Z,4.10
2023-10-26T04:20:37.456Z,4.20
2023-10-26T04:23:05.229Z,4.05
2023-10-26T04:25:50.719Z,4.72
2023-10-26T04:28:20.254Z,3.80
2023-10-26T04:30:48.770Z,5.28
2023-10-26T04:33:16.777Z,4.55
2023-10-26T04:35:44.793Z,7.05
2023-10-26T04:38:12.579Z,4.57
2023-10-26T04:40:40.965Z,6.85
2023-10-26T04:43:08.555Z,4.75
2023-10-26T04:45:36.314Z,5.32
2023-10-26T04:48:04.353Z,5.47
2023-10-26T04:50:32.741Z,5.82
2023-10-26T04:53:03.944Z,7.43
2023-10-26T04:55:37.618Z,10.45
2023-10-26T04:58:05.362Z,7.53
2023-10-26T05:00:33.650Z,9.45
2023-10-26T05:03:01.320Z,8.40
2023-10-26T05:05:28.899Z,9.93
2023-10-26T05:07:56.306Z,8.15
2023-10-26T05:10:23.770Z,7.57
2023-10-26T05:12:51.141Z,7.90
2023-10-26T05:15:20.236Z,10.27
2023-10-26T05:17:48.056Z,7.97
2023-10-26T05:20:15.528Z,9.25
2023-10-26T05:22:43.039Z,9.02
2023-10-26T05:25:12.609Z,10.82
2023-10-26T05:27:40.239Z,12.50
2023-10-26T05:30:07.992Z,10.32
2023-10-26T05:32:35.507Z,11.68
2023-10-26T05:35:02.952Z,10.57
2023-10-26T05:37:30.329Z,10.38
2023-10-26T05:39:57.774Z,11.13
2023-10-26T05:42:25.230Z,10.57
2023-10-26T05:44:52.597Z,11.35
2023-10-26T05:47:22.093Z,10.13
2023-10-26T05:49:50.062Z,12.43
2023-10-26T05:52:17.540Z,9.48
2023-10-26T05:54:45.273Z,7.65
2023-10-26T05:57:12.880Z,9.05
2023-10-26T05:59:40.782Z,9.15
2023-10-26T06:02:08.335Z,7.00
2023-10-26T06:04:35.892Z,7.30
2023-10-26T06:07:03.429Z,9.05
2023-10-26T06:09:31.293Z,6.38
2023-10-26T06:11:58.714Z,6.47
2023-10-26T06:14:26.522Z,9.05
2023-10-26T06:16:53.895Z,9.20
2023-10-26T06:19:21.325Z,5.55
2023-10-26T06:21:48.766Z,13.68
2023-10-26T06:24:16.288Z,13.43
2023-10-26T06:26:43.727Z,12.10
2023-10-26T06:29:11.483Z,14.77
2023-10-26T06:31:38.889Z,17.50
2023-10-26T06:34:06.494Z,9.73
2023-10-26T06:36:34.619Z,10.32
2023-10-26T06:39:03.616Z,9.50
2023-10-26T06:41:31.157Z,7.55
2023-10-26T06:43:58.621Z,7.75
2023-10-26T06:46:26.211Z,6.90
2023-10-26T06:48:53.946Z,6.43
2023-10-26T06:51:21.460Z,7.45
2023-10-26T06:53:48.948Z,6.75
2023-10-26T06:56:16.382Z,8.02
2023-10-26T06:58:44.841Z,7.22
2023-10-26T07:01:20.584Z,8.57
2023-10-26T07:03:49.205Z,7.72
2023-10-26T07:06:16.802Z,6.63
2023-10-26T07:08:45.227Z,6.93
2023-10-26T07:11:12.660Z,12.48
2023-10-26T07:13:40.188Z,8.15
2023-10-26T07:16:07.819Z,8.23
2023-10-26T07:18:35.840Z,6.93
2023-10-26T07:21:07.302Z,9.48
2023-10-26T07:23:35.082Z,7.35
2023-10-26T07:26:03.659Z,7.03
2023-10-26T07:28:31.164Z,8.10
2023-10-26T07:30:58.592Z,9.65
2023-10-26T07:33:26.338Z,7.28
2023-10-26T07:35:54.414Z,6.82
2023-10-26T07:38:35.480Z,7.68
2023-10-26T07:41:07.039Z,6.53
2023-10-26T07:43:35.552Z,9.02
2023-10-26T07:46:03.340Z,8.27
2023-10-26T07:48:32.494Z,8.50
2023-10-26T07:51:00.327Z,13.60
2023-10-26T07:53:30.055Z,6.90
2023-10-26T07:55:59.342Z,8.15
2023-10-26T07:58:28.966Z,5.05
2023-10-26T08:00:57.398Z,6.35
2023-10-26T08:03:25.633Z,7.07
2023-10-26T08:06:00.468Z,6.57
2023-10-26T08:08:28.034Z,12.00
2023-10-26T08:10:55.460Z,9.73
2023-10-26T08:13:23.432Z,6.70
2023-10-26T08:16:12.057Z,7.72
2023-10-26T08:18:38.608Z,6.85
2023-10-26T08:21:06.857Z,7.03
2023-10-26T08:23:34.394Z,8.02
2023-10-26T08:26:11.499Z,7.55
2023-10-26T08:28:39.263Z,7.38
2023-10-26T08:31:08.029Z,9.73
2023-10-26T08:33:35.737Z,5.20
2023-10-26T08:36:05.746Z,5.97
2023-10-26T08:38:34.262Z,5.53
2023-10-26T08:41:01.968Z,5.65
2023-10-26T08:43:30.500Z,5.93
2023-10-26T08:46:01.823Z,6.55
2023-10-26T08:48:31.761Z,5.90
2023-10-26T08:50:59.633Z,6.65
2023-10-26T08:53:27.031Z,6.70
2023-10-26T08:55:57.907Z,6.03
2023-10-26T08:58:25.410Z,5.65
2023-10-26T09:00:53.703Z,4.35
2023-10-26T09:03:23.999Z,8.75
2023-10-26T09:05:55.292Z,4.63
2023-10-26T09:08:24.696Z,5.55
2023-10-26T09:10:52.746Z,5.95
2023-10-26T09:13:27.288Z,5.45
2023-10-26T09:15:57.063Z,7.13
2023-10-26T09:18:25.450Z,5.60
2023-10-26T09:21:09.489Z,5.43
2023-10-26T09:23:38.623Z,5.70
2023-10-26T09:26:09.275Z,7.00
2023-10-26T09:28:50.321Z,5.07
2023-10-26T09:31:19.035Z,5.68
2023-10-26T09:33:49.872Z,6.35
2023-10-26T09:36:18.445Z,5.43
2023-10-26T09:38:46.091Z,4.50
2023-10-26T09:41:14.536Z,4.35
2023-10-26T09:43:42.543Z,4.40
2023-10-26T09:46:10.441Z,5.75
2023-10-26T09:48:38.304Z,6.15
2023-10-26T09:51:06.106Z,5.10
2023-10-26T09:53:35.603Z,5.22
2023-10-26T09:56:04.239Z,12.48
2023-10-26T09:58:36.305Z,6.90
2023-10-26T10:01:23.716Z,5.97
2023-10-26T10:03:51.473Z,6.18
2023-10-26T10:06:37.867Z,9.88
2023-10-26T10:09:05.304Z,5.90
2023-10-26T10:11:32.736Z,7.95
2023-10-26T10:14:00.398Z,12.25
2023-10-26T10:16:37.472Z,24.38
2023-10-26T10:19:18.261Z,15.35
2023-10-26T10:21:46.104Z,20.50
2023-10-26T10:24:33.484Z,10.75
2023-10-26T10:27:08.874Z,21.05
2023-10-26T10:29:36.379Z,6.05
2023-10-26T10:32:03.925Z,8.07
2023-10-26T10:34:31.848Z,6.38
2023-10-26T10:37:15.635Z,4.00
2023-10-26T10:40:01.879Z,5.82
2023-10-26T10:42:29.483Z,7.07
2023-10-26T10:44:58.506Z,6.15
2023-10-26T10:47:29.880Z,4.03
2023-10-26T10:50:16.557Z,5.53
2023-10-26T10:52:44.159Z,4.82
2023-10-26T10:55:11.892Z,3.80
2023-10-26T10:57:57.931Z,5.53
2023-10-26T11:00:29.432Z,3.80
2023-10-26T11:03:00.083Z,3.17
2023-10-26T11:05:43.764Z,4.47
2023-10-26T11:08:11.445Z,5.70
2023-10-26T11:10:39.147Z,5.25
2023-10-26T11:13:06.942Z,7.80
2023-10-26T11:15:34.389Z,4.18
2023-10-26T11:18:02.481Z,4.63
2023-10-26T11:20:43.610Z,3.45
2023-10-26T11:23:11.945Z,3.42
2023-10-26T11:25:39.870Z,3.80
2023-10-26T11:28:07.986Z,6.68
2023-10-26T11:30:51.968Z,4.57
2023-10-26T11:33:32.811Z,4.15
2023-10-26T11:36:00.584Z,4.35
2023-10-26T11:38:28.222Z,3.45
2023-10-26T11:40:56.832Z,5.32
2023-10-26T11:43:34.474Z,3.97
2023-10-26T11:46:04.688Z,3.80
2023-10-26T11:48:33.842Z,4.85
2023-10-26T11:51:04.098Z,5.53
2023-10-26T11:53:31.505Z,3.42
2023-10-26T11:55:58.900Z,3.90
2023-10-26T11:58:26.316Z,4.10
2023-10-26T12:00:53.775Z,2.67
2023-10-26T12:03:21.396Z,3.22
2023-10-26T12:05:48.809Z,3.03
2023-10-26T12:08:16.420Z,5.57
2023-10-26T12:10:43.832Z,6.65
2023-10-26T12:13:11.184Z,3.28
2023-10-26T12:15:38.625Z,4.00
2023-10-26T12:18:07.155Z,3.45
2023-10-26T12:20:34.597Z,3.45
2023-10-26T12:23:01.946Z,5.68
2023-10-26T12:25:29.370Z,4.65
2023-10-26T12:28:19.692Z,3.20
2023-10-26T12:30:46.669Z,3.50
2023-10-26T12:33:14.506Z,3.67
2023-10-26T12:35:41.941Z,7.28
2023-10-26T12:38:09.466Z,3.85
2023-10-26T12:40:37.011Z,3.35
2023-10-26T12:43:05.038Z,3.97
2023-10-26T12:45:32.685Z,3.17
2023-10-26T12:48:01.256Z,3.45
2023-10-26T12:50:28.687Z,3.50
2023-10-26T12:52:56.317Z,5.38
2023-10-26T12:55:25.265Z,4.57
2023-10-26T12:57:53.636Z,4.40
2023-10-26T13:00:21.649Z,4.35
2023-10-26T13:02:49.787Z,3.47
2023-10-26T13:05:17.311Z,4.25
2023-10-26T13:07:44.737Z,4.63
2023-10-26T13:10:12.185Z,5.05
2023-10-26T13:12:40.597Z,3.90
2023-10-26T13:15:08.259Z,3.83
2023-10-26T13:17:35.903Z,5.22
2023-10-26T13:20:05.297Z,6.63
2023-10-26T13:22:33.068Z,5.15
2023-10-26T13:25:00.490Z,3.75
2023-10-26T13:27:27.979Z,4.25
2023-10-26T13:29:55.379Z,5.40
2023-10-26T13:32:22.912Z,6.10
2023-10-26T13:34:50.321Z,4.65
2023-10-26T13:37:17.697Z,4.38
2023-10-26T13:39:45.229Z,4.20
2023-10-26T13:42:12.785Z,5.65
2023-10-26T13:44:40.395Z,5.85
2023-10-26T13:47:07.810Z,7.97
2023-10-26T13:49:35.430Z,5.18
2023-10-26T13:52:02.997Z,5.18
2023-10-26T13:54:30.393Z,5.50
2023-10-26T13:56:59.320Z,5.47
2023-10-26T13:59:26.706Z,5.15
2023-10-26T14:01:54.271Z,4.07
2023-10-26T14:04:21.905Z,4.78
2023-10-26T14:06:49.370Z,5.90
2023-10-26T14:09:16.981Z,6.82
2023-10-26T14:11:44.449Z,6.47
2023-10-26T14:14:11.842Z,6.72
2023-10-26T14:16:39.296Z,5.10
2023-10-26T14:19:08.607Z,6.82
2023-10-26T14:21:37.381Z,5.30
2023-10-26T14:24:05.060Z,4.55
2023-10-26T14:26:32.484Z,5.20
2023-10-26T14:28:59.845Z,5.53
2023-10-26T14:31:27.322Z,5.35
2023-10-26T14:33:55.764Z,5.13
2023-10-26T14:36:23.217Z,5.15
2023-10-26T14:38:53.518Z,7.65
2023-10-26T14:41:20.926Z,15.38
2023-10-26T14:43:48.417Z,9.55
2023-10-26T14:46:16.073Z,9.38
2023-10-26T14:48:43.524Z,7.03
2023-10-26T14:51:13.832Z,6.35
2023-10-26T14:53:41.271Z,5.38
2023-10-26T14:56:08.772Z,4.40
2023-10-26T14:58:36.163Z,6.20
2023-10-26T15:01:04.350Z,7.55
2023-10-26T15:03:31.929Z,7.50
2023-10-26T15:06:01.821Z,12.40
2023-10-26T15:08:29.330Z,7.20
2023-10-26T15:11:22.811Z,5.43
2023-10-26T15:13:44.364Z,6.63
2023-10-26T15:16:11.918Z,5.70
2023-10-26T15:18:39.522Z,6.57
2023-10-26T15:21:07.640Z,5.20
2023-10-26T15:23:35.127Z,4.82
2023-10-26T15:26:04.450Z,5.40
2023-10-26T15:28:35.203Z,4.60
2023-10-26T15:31:03.123Z,4.00
2023-10-26T15:33:31.125Z,5.18
2023-10-26T15:36:00.013Z,4.72
2023-10-26T15:38:30.543Z,4.55
2023-10-26T15:41:07.528Z,6.63
2023-10-26T15:43:35.766Z,6.18
2023-10-26T15:46:06.760Z,6.22
2023-10-26T15:49:34.722Z,6.53
2023-10-26T15:51:22.111Z,6.97
2023-10-26T15:53:49.516Z,8.15
2023-10-26T15:56:16.878Z,6.15
2023-10-26T15:58:44.377Z,10.73
2023-10-26T16:01:12.296Z,6.57
2023-10-26T16:03:39.860Z,7.97
2023-10-26T16:06:08.724Z,4.70
2023-10-26T16:08:36.750Z,5.00
2023-10-26T16:11:04.265Z,6.20
2023-10-26T16:13:34.763Z,4.75
2023-10-26T16:16:02.344Z,4.85
2023-10-26T16:18:29.749Z,5.50
2023-10-26T16:20:57.177Z,4.35
2023-10-26T16:23:24.713Z,9.52
2023-10-26T16:25:52.708Z,5.45
2023-10-26T16:28:20.303Z,5.18
2023-10-26T16:30:48.116Z,4.80
2023-10-26T16:33:15.576Z,5.05
2023-10-26T16:35:44.490Z,5.60
2023-10-26T16:38:11.930Z,7.07
2023-10-26T16:40:42.389Z,7.15
2023-10-26T16:43:11.136Z,7.68
2023-10-26T16:45:39.233Z,7.15
2023-10-26T16:48:06.931Z,6.40
2023-10-26T16:50:34.544Z,6.25
2023-10-26T16:53:02.625Z,7.28
2023-10-26T16:55:32.126Z,6.03
2023-10-26T16:57:59.557Z,6.20
2023-10-26T17:00:27.009Z,7.07
2023-10-26T17:02:54.550Z,7.10
2023-10-26T17:05:22.409Z,8.68
2023-10-26T17:07:50.073Z,8.68
2023-10-26T17:10:17.603Z,9.80
2023-10-26T17:12:46.956Z,8.10
2023-10-26T17:15:15.542Z,8.23
2023-10-26T17:17:42.991Z,7.78
2023-10-26T17:20:10.526Z,11.60
2023-10-26T17:22:37.938Z,6.93
2023-10-26T17:25:05.640Z,9.23
2023-10-26T17:27:33.174Z,8.45
2023-10-26T17:30:00.586Z,8.70
2023-10-26T17:32:28.185Z,7.97
2023-10-26T17:34:55.798Z,7.32
2023-10-26T17:37:23.287Z,7.07
2023-10-26T17:39:51.402Z,7.50
2023-10-26T17:42:20.722Z,6.38
2023-10-26T17:44:48.153Z,9.80
2023-10-26T17:47:15.755Z,7.35
2023-10-26T17:49:43.581Z,7.22
2023-10-26T17:52:11.139Z,7.47
2023-10-26T17:54:38.649Z,7.55
2023-10-26T17:57:06.981Z,8.85
2023-10-26T17:59:34.382Z,6.80
2023-10-26T18:02:06.580Z,8.95
2023-10-26T18:04:34.853Z,9.82
2023-10-26T18:07:02.467Z,8.40
2023-10-26T18:09:30.667Z,8.05
2023-10-26T18:11:58.527Z,7.88
2023-10-26T18:14:26.645Z,12.80
2023-10-26T18:16:56.125Z,6.78
2023-10-26T18:19:23.684Z,5.47
2023-10-26T18:21:51.104Z,5.50
2023-10-26T18:24:18.672Z,6.57
2023-10-26T18:26:46.909Z,5.57
2023-10-26T18:29:14.491Z,6.28
2023-10-26T18:31:43.427Z,6.32
2023-10-26T18:34:10.999Z,5.25
2023-10-26T18:36:40.490Z,7.28
2023-10-26T18:39:08.027Z,6.68
2023-10-26T18:41:35.398Z,7.72
2023-10-26T18:44:02.768Z,5.55
2023-10-26T18:46:30.364Z,8.35
2023-10-26T18:48:58.106Z,7.00
2023-10-26T18:51:25.557Z,9.30
2023-10-26T18:53:53.198Z,9.88
2023-10-26T18:56:22.820Z,9.10
2023-10-26T18:58:50.737Z,10.32
2023-10-26T19:01:18.279Z,10.27
2023-10-26T19:03:57.976Z,9.95
2023-10-26T19:06:30.166Z,10.90
2023-10-26T19:08:57.745Z,7.57
2023-10-26T19:11:25.240Z,7.38
2023-10-26T19:13:52.817Z,8.38
2023-10-26T19:16:20.586Z,9.30
2023-10-26T19:18:48.142Z,7.55
2023-10-26T19:21:15.748Z,22.13
2023-10-26T19:23:43.294Z,9.30
2023-10-26T19:26:11.337Z,5.88
2023-10-26T19:28:38.856Z,6.85
2023-10-26T19:31:11.147Z,7.45
2023-10-26T19:33:40.777Z,7.53
2023-10-26T19:36:08.481Z,8.00
2023-10-26T19:38:35.898Z,6.45
2023-10-26T19:41:03.578Z,28.20
2023-10-26T19:43:31.039Z,4.85
2023-10-26T19:45:58.543Z,5.28
2023-10-26T19:48:26.183Z,8.70
2023-10-26T19:50:53.562Z,7.95
2023-10-26T19:53:21.074Z,7.40
2023-10-26T19:55:49.598Z,7.15
2023-10-26T19:58:17.239Z,8.02
2023-10-26T20:00:45.558Z,6.93
2023-10-26T20:03:13.261Z,8.82
2023-10-26T20:05:40.668Z,7.22
2023-10-26T20:08:08.244Z,8.60
2023-10-26T20:10:35.639Z,18.35
2023-10-26T20:13:04.347Z,13.35
2023-10-26T20:15:31.854Z,33.10
2023-10-26T20:17:59.317Z,21.67
2023-10-26T20:20:29.624Z,17.88
2023-10-26T20:22:57.039Z,12.50
2023-10-26T20:25:24.518Z,13.95
2023-10-26T20:27:52.041Z,12.55
2023-10-26T20:30:20.517Z,18.58
2023-10-26T20:32:50.101Z,18.60
2023-10-26T20:35:17.836Z,12.07
2023-10-26T20:37:45.256Z,29.00
2023-10-26T20:40:13.480Z,24.33
2023-10-26T20:42:44.310Z,43.40
2023-10-26T20:45:12.619Z,30.60
2023-10-26T20:47:40.113Z,27.50
2023-10-26T20:50:08.204Z,13.15
2023-10-26T20:52:35.619Z,14.48
2023-10-26T20:55:03.135Z,15.70
2023-10-26T20:57:30.654Z,13.07
2023-10-26T20:59:58.126Z,16.45
2023-10-26T21:02:25.497Z,13.32
2023-10-26T21:04:52.867Z,14.32
2023-10-26T21:07:20.350Z,13.85
2023-10-26T21:09:47.857Z,16.60
2023-10-26T21:12:15.385Z,22.60
2023-10-26T21:14:42.797Z,12.30
2023-10-26T21:17:10.188Z,17.10
2023-10-26T21:19:37.617Z,19.55
2023-10-26T21:22:05.818Z,17.30
2023-10-26T21:24:33.331Z,14.32
2023-10-26T21:27:00.705Z,15.60
2023-10-26T21:29:28.061Z,17.35
2023-10-26T21:31:55.454Z,14.82
2023-10-26T21:34:23.083Z,15.40
2023-10-26T21:36:50.545Z,14.82
2023-10-26T21:39:17.922Z,13.27
2023-10-26T21:41:45.300Z,14.10
2023-10-26T21:44:12.697Z,12.98
2023-10-26T21:46:40.160Z,12.18
2023-10-26T21:49:07.803Z,11.85
2023-10-26T21:51:35.291Z,11.20
2023-10-26T21:54:02.710Z,10.45
2023-10-26T21:56:30.607Z,10.32
2023-10-26T21:58:58.310Z,8.95
2023-10-26T22:01:25.708Z,11.35
2023-10-26T22:04:12.001Z,10.98
2023-10-26T22:06:40.758Z,10.65
2023-10-26T22:09:08.114Z,9.98
2023-10-26T22:11:35.819Z,8.82
2023-10-26T22:14:03.310Z,8.18
2023-10-26T22:16:30.878Z,6.38
2023-10-26T22:18:58.570Z,14.55
2023-10-26T22:21:26.034Z,7.90
2023-10-26T22:23:55.159Z,6.97
2023-10-26T22:26:22.536Z,9.65
2023-10-26T22:28:50.177Z,7.07
2023-10-26T22:31:18.068Z,7.75
2023-10-26T22:33:47.812Z,9.50
2023-10-26T22:36:15.270Z,8.68
2023-10-26T22:38:42.649Z,8.80
2023-10-26T22:41:11.872Z,7.78
2023-10-26T22:43:39.474Z,7.20
2023-10-26T22:46:07.083Z,10.40
2023-10-26T22:48:34.509Z,6.95
2023-10-26T22:51:01.946Z,9.63
2023-10-26T22:53:29.364Z,10.75
2023-10-26T22:55:56.749Z,9.63
2023-10-26T22:58:24.205Z,11.38
2023-10-26T23:00:51.695Z,11.18
2023-10-26T23:03:19.243Z,9.90
2023-10-26T23:05:46.585Z,8.73
2023-10-26T23:08:15.648Z,10.57
2023-10-26T23:10:43.081Z,11.57
2023-10-26T23:13:10.479Z,9.65
2023-10-26T23:15:37.846Z,10.45
2023-10-26T23:18:05.403Z,9.18
2023-10-26T23:20:33.806Z,12.10
2023-10-26T23:23:01.213Z,10.63
2023-10-26T23:25:28.636Z,10.82
2023-10-26T23:27:56.096Z,10.75
2023-10-26T23:30:23.682Z,10.10
2023-10-26T23:32:52.076Z,14.18
2023-10-26T23:35:19.474Z,12.13
2023-10-26T23:37:46.881Z,13.88
2023-10-26T23:40:14.303Z,15.07
2023-10-26T23:42:41.672Z,10.73
2023-10-26T23:45:09.293Z,12.93
2023-10-26T23:47:36.667Z,13.82
2023-10-26T23:50:04.099Z,14.70
2023-10-26T23:52:31.689Z,14.68
2023-10-26T23:54:59.038Z,12.57
2023-10-26T23:57:26.558Z,18.55
2023-10-26T23:59:53.906Z,12.25
